sensor_id;sensor_type;location;lat;lon;timestamp;pressure;altitude;pressure_sealevel;temperature;humidity
70229;BME280;57617;51.988;5.854;2023-02-22T00:02:17;101110.56;;;10.67;71.70
70229;BME280;57617;51.988;5.854;2023-02-22T00:04:51;101108.06;;;10.65;71.68
70229;BME280;57617;51.988;5.854;2023-02-22T00:07:16;101116.44;;;10.64;71.53
70229;BME280;57617;51.988;5.854;2023-02-22T00:09:45;101112.19;;;10.56;71.58
70229;BME280;57617;51.988;5.854;2023-02-22T00:12:11;101108.03;;;10.54;71.63
70229;BME280;57617;51.988;5.854;2023-02-22T00:14:36;101110.31;;;10.57;71.79
70229;BME280;57617;51.988;5.854;2023-02-22T00:17:01;101101.81;;;10.53;71.66
70229;BME280;57617;51.988;5.854;2023-02-22T00:19:26;101114.31;;;10.54;71.78
70229;BME280;57617;51.988;5.854;2023-02-22T00:21:54;101102.63;;;10.54;71.48
70229;BME280;57617;51.988;5.854;2023-02-22T00:24:22;101098.13;;;10.48;71.76
70229;BME280;57617;51.988;5.854;2023-02-22T00:26:50;101098.47;;;10.51;71.90
70229;BME280;57617;51.988;5.854;2023-02-22T00:29:15;101107.81;;;10.55;71.76
70229;BME280;57617;51.988;5.854;2023-02-22T00:31:41;101102.16;;;10.57;71.70
70229;BME280;57617;51.988;5.854;2023-02-22T00:34:06;101107.81;;;10.55;71.76
70229;BME280;57617;51.988;5.854;2023-02-22T00:36:32;101106.63;;;10.51;71.61
70229;BME280;57617;51.988;5.854;2023-02-22T00:38:57;101109.94;;;10.53;71.66
70229;BME280;57617;51.988;5.854;2023-02-22T00:41:22;101101.81;;;10.53;71.45
70229;BME280;57617;51.988;5.854;2023-02-22T00:43:47;101102.63;;;10.54;71.76
70229;BME280;57617;51.988;5.854;2023-02-22T00:46:13;101103.44;;;10.54;71.44
70229;BME280;57617;51.988;5.854;2023-02-22T00:48:39;101100.50;;;10.56;71.57
70229;BME280;57617;51.988;5.854;2023-02-22T00:51:04;101103.22;;;10.56;71.37
70229;BME280;57617;51.988;5.854;2023-02-22T00:53:29;101094.34;;;10.49;71.36
70229;BME280;57617;51.988;5.854;2023-02-22T00:55:55;101089.75;;;10.49;71.57
70229;BME280;57617;51.988;5.854;2023-02-22T00:58:20;101100.16;;;10.52;71.36
70229;BME280;57617;51.988;5.854;2023-02-22T01:00:47;101099.31;;;10.52;71.17
70229;BME280;57617;51.988;5.854;2023-02-22T01:03:17;101099.75;;;10.49;71.28
70229;BME280;57617;51.988;5.854;2023-02-22T01:05:43;101094.34;;;10.49;71.34
70229;BME280;57617;51.988;5.854;2023-02-22T01:08:10;101093.88;;;10.52;70.70
70229;BME280;57617;51.988;5.854;2023-02-22T01:10:37;101096.69;;;10.45;71.27
70229;BME280;57617;51.988;5.854;2023-02-22T01:13:03;101087.97;;;10.43;71.49
70229;BME280;57617;51.988;5.854;2023-02-22T01:15:33;101078.75;;;10.44;71.26
70229;BME280;57617;51.988;5.854;2023-02-22T01:17:58;101075.19;;;10.44;71.28
70229;BME280;57617;51.988;5.854;2023-02-22T01:20:25;101076.63;;;10.46;71.32
70229;BME280;57617;51.988;5.854;2023-02-22T01:22:52;101077.00;;;10.50;71.35
70229;BME280;57617;51.988;5.854;2023-02-22T01:25:24;101073.91;;;10.46;71.19
70229;BME280;57617;51.988;5.854;2023-02-22T01:27:51;101071.19;;;10.46;71.44
70229;BME280;57617;51.988;5.854;2023-02-22T01:30:20;101065.75;;;10.46;71.29
70229;BME280;57617;51.988;5.854;2023-02-22T01:32:46;101062.34;;;10.39;71.25
70229;BME280;57617;51.988;5.854;2023-02-22T01:35:15;101065.03;;;10.39;71.38
70229;BME280;57617;51.988;5.854;2023-02-22T01:37:42;101061.75;;;10.37;71.43
70229;BME280;57617;51.988;5.854;2023-02-22T01:40:17;101058.78;;;10.39;71.18
70229;BME280;57617;51.988;5.854;2023-02-22T01:42:47;101061.03;;;10.42;71.30
70229;BME280;57617;51.988;5.854;2023-02-22T01:48:01;101055.25;;;10.38;71.54
70229;BME280;57617;51.988;5.854;2023-02-22T01:50:31;101044.25;;;10.33;71.57
70229;BME280;57617;51.988;5.854;2023-02-22T01:52:57;101043.19;;;10.34;71.32
70229;BME280;57617;51.988;5.854;2023-02-22T01:55:24;101045.47;;;10.37;71.71
70229;BME280;57617;51.988;5.854;2023-02-22T01:57:49;101035.19;;;10.39;71.24
70229;BME280;57617;51.988;5.854;2023-02-22T02:00:17;101046.28;;;10.38;71.38
70229;BME280;57617;51.988;5.854;2023-02-22T02:02:49;101036.69;;;10.35;71.20
70229;BME280;57617;51.988;5.854;2023-02-22T02:05:16;101038.97;;;10.38;71.32
70229;BME280;57617;51.988;5.854;2023-02-22T02:07:42;101042.25;;;10.40;71.06
70229;BME280;57617;51.988;5.854;2023-02-22T02:10:12;101039.31;;;10.42;71.48
70229;BME280;57617;51.988;5.854;2023-02-22T02:12:42;101044.41;;;10.38;71.27
70229;BME280;57617;51.988;5.854;2023-02-22T02:15:30;101035.19;;;10.39;71.02
70229;BME280;57617;51.988;5.854;2023-02-22T02:17:58;101018.75;;;10.34;71.39
70229;BME280;57617;51.988;5.854;2023-02-22T02:26:36;101033.16;;;10.23;70.67
70229;BME280;57617;51.988;5.854;2023-02-22T02:29:23;101020.84;;;10.09;70.47
70229;BME280;57617;51.988;5.854;2023-02-22T02:34:56;101011.09;;;10.02;70.92
70229;BME280;57617;51.988;5.854;2023-02-22T02:37:35;101006.97;;;9.99;70.83
70229;BME280;57617;51.988;5.854;2023-02-22T02:40:24;101011.75;;;10.04;71.15
70229;BME280;57617;51.988;5.854;2023-02-22T02:43:12;101011.09;;;10.02;71.03
70229;BME280;57617;51.988;5.854;2023-02-22T02:45:46;101010.31;;;10.01;71.08
70229;BME280;57617;51.988;5.854;2023-02-22T02:48:14;101003.81;;;10.02;70.69
70229;BME280;57617;51.988;5.854;2023-02-22T02:50:47;101003.81;;;10.02;71.01
70229;BME280;57617;51.988;5.854;2023-02-22T02:53:16;100993.34;;;10.06;70.88
70229;BME280;57617;51.988;5.854;2023-02-22T02:55:42;100986.84;;;10.07;70.77
70229;BME280;57617;51.988;5.854;2023-02-22T02:58:16;100991.47;;;10.06;70.75
70229;BME280;57617;51.988;5.854;2023-02-22T03:00:42;100984.81;;;10.02;70.79
70229;BME280;57617;51.988;5.854;2023-02-22T03:03:38;100984.81;;;10.02;70.43
70229;BME280;57617;51.988;5.854;2023-02-22T03:06:34;100976.31;;;9.99;70.62
70229;BME280;57617;51.988;5.854;2023-02-22T03:09:24;100973.47;;;9.94;70.67
70229;BME280;57617;51.988;5.854;2023-02-22T03:14:51;100971.66;;;9.88;70.30
70229;BME280;57617;51.988;5.854;2023-02-22T03:17:53;100974.25;;;9.83;71.10
70229;BME280;57617;51.988;5.854;2023-02-22T03:20:47;100967.44;;;9.80;70.63
70229;BME280;57617;51.988;5.854;2023-02-22T03:23:34;100967.28;;;9.75;70.94
70229;BME280;57617;51.988;5.854;2023-02-22T03:26:04;100958.53;;;9.73;70.94
70229;BME280;57617;51.988;5.854;2023-02-22T03:28:32;100968.25;;;9.81;71.22
70229;BME280;57617;51.988;5.854;2023-02-22T03:31:13;100966.81;;;9.78;70.66
70229;BME280;57617;51.988;5.854;2023-02-22T03:33:43;100956.53;;;9.69;70.89
70229;BME280;57617;51.988;5.854;2023-02-22T03:36:20;100967.28;;;9.75;71.22
70229;BME280;57617;51.988;5.854;2023-02-22T03:38:47;100962.09;;;9.74;71.25
70229;BME280;57617;51.988;5.854;2023-02-22T03:41:16;100957.47;;;9.74;70.93
70229;BME280;57617;51.988;5.854;2023-02-22T03:43:46;100966.09;;;9.71;71.31
70229;BME280;57617;51.988;5.854;2023-02-22T03:46:14;100965.88;;;9.73;71.13
70229;BME280;57617;51.988;5.854;2023-02-22T03:48:50;100962.31;;;9.72;71.52
70229;BME280;57617;51.988;5.854;2023-02-22T03:51:18;100960.69;;;9.71;71.11
70229;BME280;57617;51.988;5.854;2023-02-22T03:53:45;100954.19;;;9.72;71.04
70229;BME280;57617;51.988;5.854;2023-02-22T03:56:16;100948.97;;;9.71;71.49
70229;BME280;57617;51.988;5.854;2023-02-22T03:58:45;100949.47;;;9.68;71.10
70229;BME280;57617;51.988;5.854;2023-02-22T04:01:15;100954.63;;;9.69;71.16
70229;BME280;57617;51.988;5.854;2023-02-22T04:03:41;100948.63;;;9.67;71.01
70229;BME280;57617;51.988;5.854;2023-02-22T04:06:07;100946.97;;;9.66;71.51
70229;BME280;57617;51.988;5.854;2023-02-22T04:08:33;100937.66;;;9.62;71.41
70229;BME280;57617;51.988;5.854;2023-02-22T04:10:59;100944.13;;;9.61;71.46
70229;BME280;57617;51.988;5.854;2023-02-22T04:13:25;100935.88;;;9.56;71.33
70229;BME280;57617;51.988;5.854;2023-02-22T04:15:51;100934.66;;;9.52;71.54
70229;BME280;57617;51.988;5.854;2023-02-22T04:18:16;100935.50;;;9.53;71.47
70229;BME280;57617;51.988;5.854;2023-02-22T04:20:42;100936.53;;;9.52;71.18
70229;BME280;57617;51.988;5.854;2023-02-22T04:23:09;100937.16;;;9.54;71.61
70229;BME280;57617;51.988;5.854;2023-02-22T04:25:34;100934.22;;;9.55;71.18
70229;BME280;57617;51.988;5.854;2023-02-22T04:27:59;100931.25;;;9.57;71.18
70229;BME280;57617;51.988;5.854;2023-02-22T04:30:24;100925.03;;;9.56;71.66
70229;BME280;57617;51.988;5.854;2023-02-22T04:32:50;100934.81;;;9.57;70.93
70229;BME280;57617;51.988;5.854;2023-02-22T04:35:15;100933.16;;;9.56;71.08
70229;BME280;57617;51.988;5.854;2023-02-22T04:37:40;100926.44;;;9.59;71.33
70229;BME280;57617;51.988;5.854;2023-02-22T04:40:06;100928.78;;;9.55;71.11
70229;BME280;57617;51.988;5.854;2023-02-22T04:42:33;100923.59;;;9.54;71.61
70229;BME280;57617;51.988;5.854;2023-02-22T04:44:59;100920.53;;;9.50;71.15
70229;BME280;57617;51.988;5.854;2023-02-22T04:47:24;100913.91;;;9.46;71.63
70229;BME280;57617;51.988;5.854;2023-02-22T04:49:49;100907.88;;;9.44;71.13
70229;BME280;57617;51.988;5.854;2023-02-22T04:52:15;100901.03;;;9.42;71.42
70229;BME280;57617;51.988;5.854;2023-02-22T04:54:40;100901.28;;;9.40;71.69
70229;BME280;57617;51.988;5.854;2023-02-22T04:57:05;100902.44;;;9.44;71.53
70229;BME280;57617;51.988;5.854;2023-02-22T04:59:31;100891.09;;;9.36;71.17
70229;BME280;57617;51.988;5.854;2023-02-22T05:01:57;100898.88;;;9.32;71.56
70229;BME280;57617;51.988;5.854;2023-02-22T05:04:22;100890.53;;;9.34;71.36
70229;BME280;57617;51.988;5.854;2023-02-22T05:06:48;100891.94;;;9.36;71.43
70229;BME280;57617;51.988;5.854;2023-02-22T05:09:13;100888.03;;;9.32;71.49
70229;BME280;57617;51.988;5.854;2023-02-22T05:11:38;100888.41;;;9.36;71.56
70229;BME280;57617;51.988;5.854;2023-02-22T05:14:04;100884.88;;;9.35;71.60
70229;BME280;57617;51.988;5.854;2023-02-22T05:16:29;100886.75;;;9.35;71.53
70229;BME280;57617;51.988;5.854;2023-02-22T05:18:55;100877.91;;;9.28;71.45
70229;BME280;57617;51.988;5.854;2023-02-22T05:21:20;100879.78;;;9.27;71.97
70229;BME280;57617;51.988;5.854;2023-02-22T05:23:45;100870.84;;;9.27;71.46
70229;BME280;57617;51.988;5.854;2023-02-22T05:26:11;100874.00;;;9.24;71.93
70229;BME280;57617;51.988;5.854;2023-02-22T05:28:36;100873.16;;;9.23;72.10
70229;BME280;57617;51.988;5.854;2023-02-22T05:31:01;100867.28;;;9.26;71.97
70229;BME280;57617;51.988;5.854;2023-02-22T05:33:27;100864.00;;;9.24;71.60
70229;BME280;57617;51.988;5.854;2023-02-22T05:35:52;100864.22;;;9.23;72.09
70229;BME280;57617;51.988;5.854;2023-02-22T05:38:20;100866.09;;;9.22;71.47
70229;BME280;57617;51.988;5.854;2023-02-22T05:40:45;100853.47;;;9.16;72.23
70229;BME280;57617;51.988;5.854;2023-02-22T05:43:11;100865.13;;;9.17;72.22
70229;BME280;57617;51.988;5.854;2023-02-22T05:45:36;100856.16;;;9.16;72.34
70229;BME280;57617;51.988;5.854;2023-02-22T05:48:02;100861.38;;;9.18;72.30
70229;BME280;57617;51.988;5.854;2023-02-22T05:50:28;100858.44;;;9.19;72.18
70229;BME280;57617;51.988;5.854;2023-02-22T05:52:53;100860.53;;;9.17;71.74
70229;BME280;57617;51.988;5.854;2023-02-22T05:55:22;100855.34;;;9.16;71.78
70229;BME280;57617;51.988;5.854;2023-02-22T05:57:48;100846.13;;;9.05;72.05
70229;BME280;57617;51.988;5.854;2023-02-22T06:00:34;100841.50;;;9.06;72.87
70229;BME280;57617;51.988;5.854;2023-02-22T06:03:02;100848.34;;;9.08;72.64
70229;BME280;57617;51.988;5.854;2023-02-22T06:05:28;100842.50;;;9.11;72.19
70229;BME280;57617;51.988;5.854;2023-02-22T06:07:54;100837.16;;;9.05;72.29
70229;BME280;57617;51.988;5.854;2023-02-22T06:10:20;100846.13;;;9.05;72.79
70229;BME280;57617;51.988;5.854;2023-02-22T06:12:48;100855.31;;;9.04;72.63
70229;BME280;57617;51.988;5.854;2023-02-22T06:15:15;100844.69;;;9.03;72.24
70229;BME280;57617;51.988;5.854;2023-02-22T06:17:40;100842.06;;;8.96;72.65
70229;BME280;57617;51.988;5.854;2023-02-22T06:20:08;100834.44;;;8.93;73.15
70229;BME280;57617;51.988;5.854;2023-02-22T06:22:33;100835.84;;;8.96;72.85
70229;BME280;57617;51.988;5.854;2023-02-22T06:25:01;100836.06;;;8.94;73.71
70229;BME280;57617;51.988;5.854;2023-02-22T06:27:30;100843.72;;;8.97;73.00
70229;BME280;57617;51.988;5.854;2023-02-22T06:29:55;100844.56;;;8.98;72.90
70229;BME280;57617;51.988;5.854;2023-02-22T06:32:20;100853.50;;;8.98;73.13
70229;BME280;57617;51.988;5.854;2023-02-22T06:34:45;100850.44;;;8.95;73.08
70229;BME280;57617;51.988;5.854;2023-02-22T06:37:11;100844.41;;;8.93;73.16
70229;BME280;57617;51.988;5.854;2023-02-22T06:39:36;100836.53;;;8.91;73.50
70229;BME280;57617;51.988;5.854;2023-02-22T06:42:01;100834.28;;;8.88;73.37
70229;BME280;57617;51.988;5.854;2023-02-22T06:44:27;100841.50;;;8.94;73.63
70229;BME280;57617;51.988;5.854;2023-02-22T06:46:52;100833.59;;;8.93;73.22
70229;BME280;57617;51.988;5.854;2023-02-22T06:49:18;100829.00;;;8.93;73.38
70229;BME280;57617;51.988;5.854;2023-02-22T06:51:44;100837.84;;;9.00;73.74
70229;BME280;57617;51.988;5.854;2023-02-22T06:54:10;100834.66;;;9.03;73.26
70229;BME280;57617;51.988;5.854;2023-02-22T06:56:35;100829.25;;;9.03;73.62
70229;BME280;57617;51.988;5.854;2023-02-22T06:59:00;100828.22;;;9.04;73.02
70229;BME280;57617;51.988;5.854;2023-02-22T07:01:27;100834.66;;;9.03;73.34
70229;BME280;57617;51.988;5.854;2023-02-22T07:03:52;100823.84;;;9.03;73.58
70229;BME280;57617;51.988;5.854;2023-02-22T07:06:17;100824.09;;;9.02;73.75
70229;BME280;57617;51.988;5.854;2023-02-22T07:08:43;100830.78;;;8.99;73.50
70229;BME280;57617;51.988;5.854;2023-02-22T07:11:08;100819.47;;;9.02;73.46
70229;BME280;57617;51.988;5.854;2023-02-22T07:13:33;100822.81;;;9.04;73.32
70229;BME280;57617;51.988;5.854;2023-02-22T07:15:59;100818.91;;;9.00;73.25
70229;BME280;57617;51.988;5.854;2023-02-22T07:18:24;100824.91;;;9.02;73.94
70229;BME280;57617;51.988;5.854;2023-02-22T07:20:49;100831.16;;;9.03;74.04
70229;BME280;57617;51.988;5.854;2023-02-22T07:23:15;100817.00;;;9.01;74.24
70229;BME280;57617;51.988;5.854;2023-02-22T07:25:41;100829.50;;;9.02;73.70
70229;BME280;57617;51.988;5.854;2023-02-22T07:28:07;100826.81;;;9.02;73.97
70229;BME280;57617;51.988;5.854;2023-02-22T07:30:35;100826.53;;;9.03;73.94
70229;BME280;57617;51.988;5.854;2023-02-22T07:33:05;100819.25;;;9.04;74.22
70229;BME280;57617;51.988;5.854;2023-02-22T07:35:36;100816.91;;;9.07;74.24
70229;BME280;57617;51.988;5.854;2023-02-22T07:38:03;100815.97;;;9.13;74.10
70229;BME280;57617;51.988;5.854;2023-02-22T07:40:29;100824.72;;;9.15;74.25
70229;BME280;57617;51.988;5.854;2023-02-22T07:43:03;100822.22;;;9.14;74.07
70229;BME280;57617;51.988;5.854;2023-02-22T07:45:33;100826.00;;;9.13;74.52
70229;BME280;57617;51.988;5.854;2023-02-22T07:48:01;100832.00;;;9.15;74.26
70229;BME280;57617;51.988;5.854;2023-02-22T07:50:28;100827.28;;;9.10;74.84
70229;BME280;57617;51.988;5.854;2023-02-22T07:52:59;100821.16;;;9.15;75.01
70229;BME280;57617;51.988;5.854;2023-02-22T07:55:27;100822.69;;;9.11;74.56
70229;BME280;57617;51.988;5.854;2023-02-22T07:57:54;100824.59;;;9.10;74.48
70229;BME280;57617;51.988;5.854;2023-02-22T08:00:27;100823.66;;;9.16;75.08
70229;BME280;57617;51.988;5.854;2023-02-22T08:02:53;100836.50;;;9.21;74.46
70229;BME280;57617;51.988;5.854;2023-02-22T08:05:19;100824.50;;;9.28;74.81
70229;BME280;57617;51.988;5.854;2023-02-22T08:07:45;100823.59;;;9.34;74.13
70229;BME280;57617;51.988;5.854;2023-02-22T08:10:13;100824.53;;;9.40;74.71
70229;BME280;57617;51.988;5.854;2023-02-22T08:12:38;100807.69;;;9.38;74.89
70229;BME280;57617;51.988;5.854;2023-02-22T08:15:06;100812.97;;;9.44;74.33
70229;BME280;57617;51.988;5.854;2023-02-22T08:17:32;100809.25;;;9.45;74.48
70229;BME280;57617;51.988;5.854;2023-02-22T08:19:58;100817.00;;;9.53;74.65
70229;BME280;57617;51.988;5.854;2023-02-22T08:22:23;100820.91;;;9.57;74.51
70229;BME280;57617;51.988;5.854;2023-02-22T08:24:49;100826.34;;;9.57;74.29
70229;BME280;57617;51.988;5.854;2023-02-22T08:27:30;100817.97;;;9.59;74.17
70229;BME280;57617;51.988;5.854;2023-02-22T08:29:57;100821.50;;;9.59;74.62
70229;BME280;57617;51.988;5.854;2023-02-22T08:32:23;100805.72;;;9.56;74.80
70229;BME280;57617;51.988;5.854;2023-02-22T08:34:48;100817.63;;;9.55;74.42
70229;BME280;57617;51.988;5.854;2023-02-22T08:37:15;100818.19;;;9.57;74.17
70229;BME280;57617;51.988;5.854;2023-02-22T08:39:40;100810.66;;;9.59;74.47
70229;BME280;57617;51.988;5.854;2023-02-22T08:42:07;100811.50;;;9.60;74.79
70229;BME280;57617;51.988;5.854;2023-02-22T08:44:37;100823.66;;;9.69;74.70
70229;BME280;57617;51.988;5.854;2023-02-22T08:47:03;100828.59;;;9.72;74.71
70229;BME280;57617;51.988;5.854;2023-02-22T08:49:28;100836.25;;;9.75;74.08
70229;BME280;57617;51.988;5.854;2023-02-22T08:51:53;100840.28;;;9.72;74.20
70229;BME280;57617;51.988;5.854;2023-02-22T08:54:18;100844.06;;;9.71;74.43
70229;BME280;57617;51.988;5.854;2023-02-22T08:56:44;100839.22;;;9.73;74.60
70229;BME280;57617;51.988;5.854;2023-02-22T08:59:09;100823.66;;;9.69;74.42
70229;BME280;57617;51.988;5.854;2023-02-22T09:01:35;100831.19;;;9.78;74.51
70229;BME280;57617;51.988;5.854;2023-02-22T09:04:01;100830.13;;;9.79;74.23
70229;BME280;57617;51.988;5.854;2023-02-22T09:06:27;100819.75;;;9.76;74.64
70229;BME280;57617;51.988;5.854;2023-02-22T09:08:53;100819.88;;;9.81;74.91
70229;BME280;57617;51.988;5.854;2023-02-22T09:11:18;100817.41;;;9.80;74.49
70229;BME280;57617;51.988;5.854;2023-02-22T09:13:43;100806.56;;;9.80;74.75
70229;BME280;57617;51.988;5.854;2023-02-22T09:16:09;100809.28;;;9.91;74.70
70229;BME280;57617;51.988;5.854;2023-02-22T09:18:34;100805.84;;;9.96;74.62
70229;BME280;57617;51.988;5.854;2023-02-22T09:21:01;100793.81;;;9.92;74.52
70229;BME280;57617;51.988;5.854;2023-02-22T09:23:26;100793.69;;;9.98;74.81
70229;BME280;57617;51.988;5.854;2023-02-22T09:25:51;100783.06;;;9.97;74.96
70229;BME280;57617;51.988;5.854;2023-02-22T09:28:17;100781.44;;;10.07;74.82
70229;BME280;57617;51.988;5.854;2023-02-22T09:30:42;100771.28;;;10.14;74.75
70229;BME280;57617;51.988;5.854;2023-02-22T09:33:11;100769.28;;;10.21;74.63
70229;BME280;57617;51.988;5.854;2023-02-22T09:35:37;100769.13;;;10.28;74.42
70229;BME280;57617;51.988;5.854;2023-02-22T09:38:07;100768.31;;;10.27;74.47
70229;BME280;57617;51.988;5.854;2023-02-22T09:40:35;100785.06;;;10.36;74.22
70229;BME280;57617;51.988;5.854;2023-02-22T09:46:13;100772.03;;;10.49;74.30
70229;BME280;57617;51.988;5.854;2023-02-22T09:51:18;100763.03;;;10.49;74.12
70229;BME280;57617;51.988;5.854;2023-02-22T09:53:45;100773.75;;;10.55;74.06
70229;BME280;57617;51.988;5.854;2023-02-22T09:56:15;100769.28;;;10.61;73.89
70229;BME280;57617;51.988;5.854;2023-02-22T09:58:44;100763.09;;;10.65;74.15
70229;BME280;57617;51.988;5.854;2023-02-22T10:06:22;100763.63;;;10.79;73.72
70229;BME280;57617;51.988;5.854;2023-02-22T10:08:51;100764.94;;;10.76;73.62
70229;BME280;57617;51.988;5.854;2023-02-22T10:17:33;100764.56;;;10.84;71.88
70229;BME280;57617;51.988;5.854;2023-02-22T10:23:40;100767.22;;;10.96;73.18
70229;BME280;57617;51.988;5.854;2023-02-22T10:28:41;100765.75;;;11.05;73.23
70229;BME280;57617;51.988;5.854;2023-02-22T10:31:18;100760.25;;;11.16;72.63
70229;BME280;57617;51.988;5.854;2023-02-22T10:33:53;100746.97;;;11.20;73.50
70229;BME280;57617;51.988;5.854;2023-02-22T10:36:22;100757.06;;;11.19;72.21
70229;BME280;57617;51.988;5.854;2023-02-22T10:38:57;100746.41;;;11.18;72.75
70229;BME280;57617;51.988;5.854;2023-02-22T10:41:30;100719.38;;;11.11;73.04
70229;BME280;57617;51.988;5.854;2023-02-22T10:43:57;100743.03;;;11.27;72.77
70229;BME280;57617;51.988;5.854;2023-02-22T10:46:24;100734.16;;;11.32;73.11
70229;BME280;57617;51.988;5.854;2023-02-22T10:48:55;100715.69;;;11.34;72.65
70229;BME280;57617;51.988;5.854;2023-02-22T10:51:21;100735.19;;;11.47;72.42
70229;BME280;57617;51.988;5.854;2023-02-22T10:53:57;100719.53;;;11.54;72.20
70229;BME280;57617;51.988;5.854;2023-02-22T10:56:24;100728.47;;;11.66;71.93
70229;BME280;57617;51.988;5.854;2023-02-22T11:01:24;100706.19;;;11.69;71.65
70229;BME280;57617;51.988;5.854;2023-02-22T11:03:57;100711.19;;;11.77;72.05
70229;BME280;57617;51.988;5.854;2023-02-22T11:06:23;100712.09;;;11.83;71.49
70229;BME280;57617;51.988;5.854;2023-02-22T11:08:48;100722.78;;;11.89;71.71
70229;BME280;57617;51.988;5.854;2023-02-22T11:11:25;100719.06;;;11.95;70.83
70229;BME280;57617;51.988;5.854;2023-02-22T11:13:54;100714.75;;;11.99;71.21
70229;BME280;57617;51.988;5.854;2023-02-22T11:16:42;100721.19;;;12.10;70.76
70229;BME280;57617;51.988;5.854;2023-02-22T11:19:22;100705.47;;;12.17;71.06
70229;BME280;57617;51.988;5.854;2023-02-22T11:21:51;100716.78;;;12.30;71.26
70229;BME280;57617;51.988;5.854;2023-02-22T11:24:19;100720.09;;;12.32;70.64
70229;BME280;57617;51.988;5.854;2023-02-22T11:26:58;100704.19;;;12.24;69.94
70229;BME280;57617;51.988;5.854;2023-02-22T11:29:27;100706.97;;;12.29;70.65
70229;BME280;57617;51.988;5.854;2023-02-22T11:31:56;100709.28;;;12.37;70.36
70229;BME280;57617;51.988;5.854;2023-02-22T11:36:56;100712.97;;;12.53;69.88
70229;BME280;57617;51.988;5.854;2023-02-22T11:39:38;100709.28;;;12.64;70.07
70229;BME280;57617;51.988;5.854;2023-02-22T11:42:20;100703.81;;;12.64;69.19
70229;BME280;57617;51.988;5.854;2023-02-22T11:44:47;100690.97;;;12.59;69.55
70229;BME280;57617;51.988;5.854;2023-02-22T11:47:13;100704.66;;;12.64;69.86
70229;BME280;57617;51.988;5.854;2023-02-22T11:49:41;100704.41;;;12.66;68.60
70229;BME280;57617;51.988;5.854;2023-02-22T11:52:23;100699.31;;;12.74;68.16
70229;BME280;57617;51.988;5.854;2023-02-22T11:58:25;100688.47;;;12.79;66.35
70229;BME280;57617;51.988;5.854;2023-02-22T12:09:18;100684.91;;;12.79;67.47
70229;BME280;57617;51.988;5.854;2023-02-22T12:14:43;100676.06;;;12.93;66.02
70229;BME280;57617;51.988;5.854;2023-02-22T12:17:25;100667.97;;;12.98;66.82
70229;BME280;57617;51.988;5.854;2023-02-22T12:20:00;100670.72;;;13.03;67.11
70229;BME280;57617;51.988;5.854;2023-02-22T12:22:33;100664.78;;;13.11;67.28
70229;BME280;57617;51.988;5.854;2023-02-22T12:25:12;100667.28;;;13.18;65.35
70229;BME280;57617;51.988;5.854;2023-02-22T12:27:51;100660.25;;;13.22;65.50
70229;BME280;57617;51.988;5.854;2023-02-22T12:30:27;100662.72;;;13.28;65.64
70229;BME280;57617;51.988;5.854;2023-02-22T12:32:57;100660.03;;;13.33;66.84
70229;BME280;57617;51.988;5.854;2023-02-22T12:35:26;100652.19;;;13.42;66.58
70229;BME280;57617;51.988;5.854;2023-02-22T12:38:26;100647.03;;;13.45;64.21
70229;BME280;57617;51.988;5.854;2023-02-22T12:41:06;100637.47;;;13.43;65.05
70229;BME280;57617;51.988;5.854;2023-02-22T12:43:39;100639.63;;;13.41;64.78
70229;BME280;57617;51.988;5.854;2023-02-22T12:49:11;100629.03;;;13.44;65.10
70229;BME280;57617;51.988;5.854;2023-02-22T12:51:44;100623.56;;;13.44;65.20
70229;BME280;57617;51.988;5.854;2023-02-22T12:56:56;100636.13;;;13.45;64.53
70229;BME280;57617;51.988;5.854;2023-02-22T12:59:28;100636.66;;;13.47;65.59
70229;BME280;57617;51.988;5.854;2023-02-22T13:02:00;100636.41;;;13.49;65.00
70229;BME280;57617;51.988;5.854;2023-02-22T13:04:27;100642.69;;;13.49;65.56
70229;BME280;57617;51.988;5.854;2023-02-22T13:10:19;100646.53;;;13.53;64.10
70229;BME280;57617;51.988;5.854;2023-02-22T13:18:13;100656.69;;;13.63;65.31
70229;BME280;57617;51.988;5.854;2023-02-22T13:20:45;100652.63;;;13.65;65.39
70229;BME280;57617;51.988;5.854;2023-02-22T13:23:26;100657.78;;;13.67;64.57
70229;BME280;57617;51.988;5.854;2023-02-22T13:26:24;100664.38;;;13.71;64.88
70229;BME280;57617;51.988;5.854;2023-02-22T13:29:09;100661.38;;;13.72;64.18
70229;BME280;57617;51.988;5.854;2023-02-22T13:49:02;100645.25;;;13.71;63.51
70229;BME280;57617;51.988;5.854;2023-02-22T13:51:46;100645.50;;;13.69;63.37
70229;BME280;57617;51.988;5.854;2023-02-22T13:56:42;100638.97;;;13.65;63.80
70229;BME280;57617;51.988;5.854;2023-02-22T13:59:25;100636.75;;;13.62;63.14
70229;BME280;57617;51.988;5.854;2023-02-22T14:01:51;100634.59;;;13.64;63.66
70229;BME280;57617;51.988;5.854;2023-02-22T14:04:38;100634.88;;;13.68;63.59
70229;BME280;57617;51.988;5.854;2023-02-22T14:09:53;100626.66;;;13.63;63.80
70229;BME280;57617;51.988;5.854;2023-02-22T14:17:35;100644.13;;;13.67;64.48
70229;BME280;57617;51.988;5.854;2023-02-22T14:22:39;100636.25;;;13.65;64.48
70229;BME280;57617;51.988;5.854;2023-02-22T14:25:05;100643.59;;;13.65;64.77
70229;BME280;57617;51.988;5.854;2023-02-22T14:27:40;100641.94;;;13.64;64.87
70229;BME280;57617;51.988;5.854;2023-02-22T14:30:06;100632.66;;;13.60;64.84
70229;BME280;57617;51.988;5.854;2023-02-22T14:32:33;100641.09;;;13.58;64.90
70229;BME280;57617;51.988;5.854;2023-02-22T14:35:15;100638.94;;;13.60;65.34
70229;BME280;57617;51.988;5.854;2023-02-22T14:37:43;100636.72;;;13.57;65.56
70229;BME280;57617;51.988;5.854;2023-02-22T14:40:20;100631.00;;;13.59;65.88
70229;BME280;57617;51.988;5.854;2023-02-22T14:42:59;100638.94;;;13.60;65.59
70229;BME280;57617;51.988;5.854;2023-02-22T14:45:28;100635.94;;;13.62;65.87
70229;BME280;57617;51.988;5.854;2023-02-22T14:48:05;100635.66;;;13.63;65.78
70229;BME280;57617;51.988;5.854;2023-02-22T14:55:42;100649.88;;;13.65;66.07